Latest Weather Observations for Cooktown

IDQ60801

Issued at 11:02 pm EST Sunday 5 July 2015 (issued every 30 minutes, with the page automatically refreshed every 10 minutes)

About weather observations | Map of weather stations | Latest weather observations for QLD | Other Formats
Station Details ID: 031209 Name: COOKTOWN AIRPORT Lat: -15.45 Lon: 145.19 Height: 4.8 m
Data from the previous 72 hours. | See also: Recent months at Cooktown
Date/Time
EST
Temp
°C
App
Temp
°C
Dew
Point
Rel
Hum
%
Delta-T
°C
Wind Press
QNH
hPa
Press
MSL
hPa
Rain
since 9 am
mm
Dir
 
Spd
km/h
Gust
km/h
Spd
kts
Gust
kts
05/11:00pm 21.4 22.6 18.2 82 2.0 SE 9 17 5 9 1016.8 - 0.0
05/10:30pm 21.6 22.1 18.4 82 2.0 SE 13 24 7 13 1016.8 - 0.0
05/10:00pm 21.7 22.0 17.8 78 2.4 SE 13 24 7 13 1016.9 - 0.0
05/09:30pm 20.8 22.1 17.5 81 2.0 SSE 7 13 4 7 1016.9 - 0.0
05/09:00pm 20.9 21.8 17.5 81 2.1 ESE 9 13 5 7 1016.9 1016.9 0.0
05/08:30pm 20.4 21.3 17.6 84 1.7 E 9 15 5 8 1016.7 - 0.0
05/08:00pm 20.4 22.1 18.0 86 1.5 ESE 6 11 3 6 1016.4 - 0.0
05/07:30pm 20.2 23.1 18.1 88 1.3 CALM 0 7 0 4 1016.1 - 0.0
05/07:00pm 21.2 23.3 18.1 82 1.9 SSE 4 9 2 5 1015.7 - 0.0
05/06:30pm 21.9 23.0 18.0 78 2.4 SE 9 13 5 7 1015.5 - 0.0
05/06:00pm 21.9 22.7 18.2 79 2.3 ESE 11 15 6 8 1015.4 1015.4 0.0
05/05:30pm 22.5 23.4 18.3 77 2.6 SE 11 17 6 9 1015.2 - 0.0
05/05:00pm 22.7 23.2 18.4 76 2.7 SE 13 19 7 10 1015.1 - 0.0
05/04:30pm 23.5 23.0 17.9 71 3.5 SE 17 24 9 13 1015.1 - 0.0
05/04:00pm 24.3 23.6 18.3 69 3.8 SE 19 32 10 17 1015.0 - 0.0
05/03:30pm 24.1 23.3 18.4 70 3.6 SE 20 26 11 14 1015.0 - 0.0
05/03:00pm 25.3 24.6 17.4 61 4.9 ESE 17 26 9 14 1015.1 1015.1 0.0
05/02:30pm 25.2 24.9 17.3 61 4.9 ESE 15 26 8 14 1015.2 - 0.0
05/02:00pm 24.9 25.1 17.7 64 4.5 SSE 13 19 7 10 1015.4 - 0.0
05/01:30pm 25.5 25.4 18.7 66 4.3 ESE 17 30 9 16 1015.8 - 0.0
05/01:00pm 24.4 24.6 19.4 73 3.2 SE 17 26 9 14 1016.2 - 0.0
05/12:30pm 22.8 22.0 19.3 80 2.2 SSE 22 28 12 15 1016.7 - 0.0
05/12:00pm 22.8 22.7 18.8 78 2.5 SE 17 32 9 17 1016.9 1016.9 0.0
05/11:30am 25.8 25.0 18.4 63 4.7 ESE 20 32 11 17 1017.0 - 0.0
05/11:00am 25.3 25.0 18.2 64 4.5 SE 17 26 9 14 1017.1 - 0.0
05/10:30am 24.9 24.7 17.7 64 4.5 ESE 15 24 8 13 1017.3 - 0.0
05/10:00am 24.2 27.0 18.0 68 3.9 CALM 0 2 0 1 1017.6 - 0.0
05/09:30am 22.6 24.7 17.2 71 3.3 SW 2 7 1 4 1017.8 - 0.0
05/09:00am 21.2 22.5 17.1 77 2.5 WNW 6 7 3 4 1017.8 1017.8 0.0
05/08:30am 18.4 20.6 16.6 89 1.1 CALM 0 4 0 2 1017.6 - 0.0
05/08:00am 15.8 16.1 15.1 96 0.4 WNW 7 9 4 5 1017.4 - 0.0
05/07:30am 15.0 16.1 14.5 97 0.3 WSW 2 7 1 4 1017.1 - 0.0
05/07:00am 14.1 15.2 13.6 97 0.3 CALM 0 0 0 0 1016.8 - 0.0
05/06:30am 14.6 14.8 14.1 97 0.3 WNW 6 7 3 4 1016.6 - 0.0
05/06:00am 14.7 14.7 14.3 97 0.2 WNW 7 9 4 5 1016.3 1016.3 0.0
05/05:30am 15.3 15.6 14.6 96 0.4 NW 6 7 3 4 1016.1 - 0.0
05/05:00am 15.4 16.2 14.9 97 0.3 WNW 4 6 2 3 1015.9 - 0.0
05/04:30am 15.0 15.3 14.5 97 0.3 NW 6 7 3 4 1015.9 - 0.0
05/04:00am 15.7 16.6 15.0 96 0.4 W 4 9 2 5 1015.8 - 0.0
05/03:30am 16.5 17.6 15.6 94 0.5 W 4 6 2 3 1015.7 - 0.0
05/03:00am 18.0 19.1 16.7 92 0.8 SW 6 9 3 5 1015.8 1015.8 0.0
05/02:30am 18.5 20.0 16.7 89 1.1 SSE 4 7 2 4 1015.9 - 0.0
05/02:00am 19.7 20.5 16.4 81 2.0 SSE 7 13 4 7 1016.1 - 0.0
05/01:30am 19.7 20.1 16.4 81 2.0 SE 9 13 5 7 1016.2 - 0.0
05/01:00am 20.1 20.5 16.4 79 2.2 SE 9 17 5 9 1016.5 - 0.0
05/12:30am 20.2 20.3 16.5 79 2.2 SE 11 17 6 9 1016.5 - 0.0
05/12:00am 20.2 20.4 16.7 80 2.1 ESE 11 17 6 9 1016.5 1016.5 0.0
 
Date/Time
EST
Temp
°C
App
Temp
°C
Dew
Point
Rel
Hum
%
Delta-T
°C
Wind Press
QNH
hPa
Press
MSL
hPa
Rain
since 9 am
mm
Dir
 
Spd
km/h
Gust
km/h
Spd
kts
Gust
kts
04/11:30pm 20.7 20.9 16.7 78 2.4 SE 11 20 6 11 1016.6 - 0.0
04/11:00pm 20.6 21.4 17.2 81 2.1 SE 9 15 5 8 1016.7 - 0.0
04/10:47pm 20.6 21.0 17.2 81 2.1 SE 11 19 6 10 1016.8 - 0.0
04/10:30pm 20.6 21.0 17.3 81 2.0 ESE 11 17 6 9 1016.8 - 0.0
04/10:15pm 20.5 21.3 17.2 81 2.0 ESE 9 15 5 8 1017.0 - 0.0
04/10:00pm 20.9 20.9 17.3 80 2.2 ESE 13 19 7 10 1017.0 - 0.0
04/09:30pm 20.8 20.8 17.2 80 2.2 ESE 13 22 7 12 1017.0 - 0.0
04/09:00pm 21.2 20.7 16.9 76 2.6 ESE 15 24 8 13 1017.0 1017.0 0.0
04/08:30pm 21.3 20.8 17.0 76 2.6 ESE 15 24 8 13 1016.8 - 0.0
04/08:00pm 21.1 20.9 16.8 76 2.6 SE 13 26 7 14 1016.5 - 0.0
04/07:30pm 21.1 20.9 16.6 75 2.7 SE 13 20 7 11 1016.2 - 0.0
04/07:00pm 21.2 20.5 16.4 74 2.9 SE 15 24 8 13 1015.9 - 0.0
04/06:30pm 21.5 20.3 16.0 71 3.3 SE 17 26 9 14 1015.7 - 0.0
04/06:00pm 21.8 20.3 15.2 66 3.9 SE 17 30 9 16 1015.4 1015.4 0.0
04/05:30pm 22.2 20.6 15.1 64 4.2 SE 17 30 9 16 1015.3 - 0.0
04/05:00pm 22.7 22.0 16.3 67 3.9 SE 15 24 8 13 1014.9 - 0.0
04/04:30pm 22.6 21.1 16.7 69 3.6 SSE 20 30 11 16 1015.0 - 0.0
04/04:00pm 22.6 21.7 16.9 70 3.5 SE 17 30 9 16 1015.1 - 0.0
04/03:30pm 22.9 20.7 17.0 69 3.6 SE 24 39 13 21 1015.1 - 0.0
04/03:00pm 23.4 22.0 17.1 67 3.9 SE 20 33 11 18 1015.1 1015.1 0.0
04/02:30pm 23.8 21.3 17.2 66 4.1 SE 26 39 14 21 1015.2 - 0.0
04/02:00pm 23.8 21.7 17.2 66 4.1 SSE 24 41 13 22 1015.4 - 0.0
04/01:30pm 24.3 21.4 17.0 63 4.5 ESE 28 37 15 20 1015.8 - 0.0
04/01:00pm 24.4 22.2 16.8 62 4.7 ESE 24 37 13 20 1016.3 - 0.0
04/12:30pm 24.6 21.6 15.9 58 5.3 ESE 26 33 14 18 1016.6 - 0.0
04/12:00pm 25.0 22.9 16.3 58 5.3 ESE 22 32 12 17 1017.0 1017.0 0.0
04/11:30am 24.6 22.8 15.9 58 5.3 ESE 20 32 11 17 1017.4 - 0.0
04/11:00am 24.9 23.4 16.2 58 5.3 ESE 19 26 10 14 1017.7 - 0.0
04/10:30am 23.9 21.9 15.6 59 5.0 SE 20 32 11 17 1017.7 - 0.0
04/10:00am 23.8 21.9 15.3 59 5.1 SE 19 32 10 17 1017.7 - 0.0
04/09:30am 23.6 23.5 16.0 62 4.6 SE 11 17 6 9 1017.7 - 0.0
04/09:00am 22.7 22.6 16.1 66 4.0 SSE 11 17 6 9 1017.6 1017.6 0.0
04/08:30am 21.9 23.0 16.6 72 3.2 S 6 9 3 5 1017.4 - 0.0
04/08:00am 20.9 22.5 16.8 77 2.5 SSE 4 7 2 4 1017.1 - 0.0
04/07:30am 18.3 20.0 16.1 87 1.3 SSE 2 7 1 4 1016.8 - 0.0
04/07:00am 18.8 19.6 15.8 83 1.8 SE 6 11 3 6 1016.4 - 0.0
04/06:30am 18.6 19.7 15.5 82 1.8 ESE 4 9 2 5 1016.2 - 0.0
04/06:00am 19.6 20.4 15.9 79 2.2 SSE 6 9 3 5 1015.9 1015.9 0.0
04/05:30am 19.7 20.3 15.8 78 2.3 SSE 7 13 4 7 1015.9 - 0.0
04/05:00am 19.7 20.0 16.0 79 2.2 SE 9 17 5 9 1015.8 - 0.0
04/04:30am 20.0 20.3 16.0 78 2.4 SE 9 17 5 9 1015.6 - 0.0
04/04:00am 20.0 20.7 16.2 79 2.3 SE 7 13 4 7 1015.7 - 0.0
04/03:30am 20.5 20.9 16.3 77 2.5 SSE 9 11 5 6 1015.7 - 0.0
04/03:00am 20.6 21.6 16.8 79 2.3 S 7 13 4 7 1015.8 1015.8 0.0
04/02:30am 20.6 20.4 16.6 78 2.4 SSE 13 17 7 9 1016.0 - 0.0
04/02:00am 20.9 20.7 16.6 76 2.6 SE 13 20 7 11 1016.2 - 0.0
04/01:30am 20.8 21.0 16.7 77 2.5 SE 11 19 6 10 1016.4 - 0.0
04/01:00am 21.2 20.5 16.4 74 2.9 SE 15 24 8 13 1016.6 - 0.0
04/12:30am 21.1 20.7 16.3 74 2.9 SE 13 26 7 14 1016.6 - 0.0
04/12:00am 21.5 19.9 16.5 73 3.0 SE 20 35 11 19 1016.7 1016.7 0.0
 
Date/Time
EST
Temp
°C
App
Temp
°C
Dew
Point
Rel
Hum
%
Delta-T
°C
Wind Press
QNH
hPa
Press
MSL
hPa
Rain
since 9 am
mm
Dir
 
Spd
km/h
Gust
km/h
Spd
kts
Gust
kts
03/11:30pm 21.1 20.7 17.2 78 2.4 SE 15 22 8 12 1016.9 - 0.0
03/11:00pm 21.0 21.0 17.2 79 2.3 SE 13 20 7 11 1017.2 - 0.0
03/10:30pm 21.1 21.1 17.3 79 2.3 SE 13 20 7 11 1017.3 - 0.0
03/10:00pm 21.2 21.2 17.3 78 2.4 SE 13 20 7 11 1017.5 - 0.0
03/09:30pm 21.5 21.1 17.1 76 2.7 SE 15 24 8 13 1017.4 - 0.0
03/09:00pm 21.4 20.8 14.6 65 4.0 SSE 11 17 6 9 1017.3 1017.3 0.0
03/08:30pm 20.9 20.7 14.8 68 3.6 SSE 9 15 5 8 1017.0 - 0.0
03/08:00pm 21.2 20.6 14.5 65 3.9 SE 11 15 6 8 1016.7 - 0.0
03/07:30pm 21.4 20.7 14.4 64 4.1 SSE 11 20 6 11 1016.5 - 0.0
03/07:00pm 21.4 20.6 14.0 62 4.3 SSE 11 15 6 8 1016.1 - 0.0
03/06:30pm 21.7 20.9 14.1 62 4.4 SE 11 20 6 11 1015.9 - 0.0
03/06:00pm 22.1 21.1 14.6 62 4.4 SE 13 20 7 11 1015.7 1015.7 0.0
03/05:30pm 23.0 21.4 16.1 65 4.2 SE 19 28 10 15 1015.4 - 0.0
03/05:00pm 23.4 21.6 16.0 63 4.5 SE 20 28 11 15 1015.2 - 0.0
03/04:30pm 23.8 21.4 15.5 59 5.0 SE 22 35 12 19 1014.8 - 0.0
03/04:00pm 24.2 20.7 15.4 58 5.3 SE 28 39 15 21 1014.6 - 0.0
03/03:30pm 24.6 21.9 15.7 57 5.4 SE 24 33 13 18 1014.4 - 0.0
03/03:00pm 24.9 22.3 15.8 57 5.5 SE 24 35 13 19 1014.6 1014.6 0.0
03/02:30pm 25.1 22.3 15.3 54 5.9 ESE 24 37 13 20 1014.8 - 0.0
03/02:00pm 24.3 22.0 14.7 55 5.7 SE 20 30 11 16 1015.2 - 0.0
03/01:30pm 25.3 22.4 15.2 53 6.1 SSE 24 35 13 19 1015.5 - 0.0
03/01:00pm 25.2 23.5 15.8 56 5.7 SE 19 32 10 17 1015.7 - 0.0
03/12:30pm 25.1 24.1 17.6 63 4.7 SE 19 30 10 16 1016.2 - 0.0
03/12:00pm 24.9 24.4 17.7 64 4.5 SSE 17 28 9 15 1016.5 1016.5 0.0
03/11:30am 24.1 22.4 17.1 65 4.3 SE 22 35 12 19 1016.9 - 0.0
03/11:00am 24.5 22.6 16.7 61 4.8 SE 22 33 12 18 1017.1 - 0.0
03/10:30am 24.8 24.1 17.4 63 4.6 SE 17 32 9 17 1017.0 - 0.0
03/10:00am 24.0 23.0 17.6 67 4.0 ESE 19 28 10 15 1017.3 - 0.0
03/09:30am 23.6 22.9 18.3 72 3.3 SE 19 28 10 15 1017.5 - 0.0
03/09:00am 20.6 22.6 18.8 89 1.1 WNW 6 7 3 4 1017.4 1017.5 0.0
03/08:30am 18.2 19.0 17.4 95 0.5 NW 9 11 5 6 1017.3 - 0.0
03/08:00am 16.9 17.6 16.2 96 0.4 WNW 7 9 4 5 1017.0 - 0.0
03/07:30am 15.8 16.4 15.3 97 0.3 W 6 7 3 4 1016.7 - 0.0
03/07:00am 15.1 15.3 14.7 97 0.2 WNW 7 11 4 6 1016.6 - 0.0
03/06:30am 15.1 16.7 14.9 99 0.1 CALM 0 0 0 0 1016.3 - 0.0
03/06:00am 15.3 16.9 15.0 98 0.2 CALM 0 0 0 0 1016.0 1016.0 0.0
03/05:30am 16.2 18.0 15.5 96 0.4 CALM 0 0 0 0 1015.8 - 0.0
03/05:00am 15.9 17.4 15.6 98 0.2 WNW 2 7 1 4 1015.7 - 0.0
03/04:30am 16.4 17.2 15.9 97 0.3 WNW 6 7 3 4 1015.7 - 0.0
03/04:00am 16.7 18.8 16.2 97 0.3 CALM 0 0 0 0 1015.7 - 0.0
03/03:30am 17.3 19.7 17.1 99 0.1 CALM 0 2 0 1 1015.8 - 0.0
03/03:00am 17.8 20.2 17.0 95 0.5 CALM 0 0 0 0 1016.0 1016.0 0.0
03/02:30am 18.2 20.8 17.4 95 0.5 CALM 0 0 0 0 1016.2 - 0.0
03/02:00am 19.0 21.8 17.9 93 0.7 CALM 0 0 0 0 1016.5 - 0.0
03/01:30am 20.3 21.7 17.9 86 1.5 SE 7 11 4 6 1016.8 - 0.0
03/01:00am 21.0 22.1 18.1 83 1.8 SE 9 13 5 7 1017.0 - 0.0
03/12:30am 21.5 22.7 18.3 82 2.0 SE 9 15 5 8 1017.3 - 0.0
03/12:00am 21.1 23.5 18.7 86 1.5 SE 4 13 2 7 1017.4 1017.4 0.0
 
Date/Time
EST
Temp
°C
App
Temp
°C
Dew
Point
Rel
Hum
%
Delta-T
°C
Wind Press
QNH
hPa
Press
MSL
hPa
Rain
since 9 am
mm
Dir
 
Spd
km/h
Gust
km/h
Spd
kts
Gust
kts
02/11:30pm 21.4 22.7 18.4 83 1.9 SE 9 15 5 8 1017.5 - 0.0

Other Formats:

Comma delimited format used in spreadsheet applications
http://www.bom.gov.au/fwo/IDQ60801/IDQ60801.95283.axf

JavaScript Object Notation format (JSON) in row-major order
http://www.bom.gov.au/fwo/IDQ60801/IDQ60801.95283.json